createdAt,value
2018-07-20T00:00:23.291Z,13.27
2018-07-20T00:02:51.635Z,12.30
2018-07-20T00:05:19.954Z,14.30
2018-07-20T00:07:48.294Z,12.57
2018-07-20T00:10:16.802Z,12.37
2018-07-20T00:12:45.131Z,9.90
2018-07-20T00:15:13.524Z,11.03
2018-07-20T00:17:41.916Z,11.27
2018-07-20T00:20:10.246Z,13.53
2018-07-20T00:22:38.618Z,13.77
2018-07-20T00:25:06.976Z,11.73
2018-07-20T00:27:35.282Z,13.13
2018-07-20T00:30:03.900Z,11.63
2018-07-20T00:32:32.216Z,10.07
2018-07-20T00:35:00.532Z,10.20
2018-07-20T00:37:28.931Z,10.40
2018-07-20T00:39:57.243Z,12.27
2018-07-20T00:42:25.732Z,8.20
2018-07-20T00:44:54.100Z,9.23
2018-07-20T00:47:22.416Z,7.97
2018-07-20T00:49:50.731Z,7.60
2018-07-20T00:52:19.241Z,8.67
2018-07-20T00:54:47.621Z,8.97
2018-07-20T00:57:15.986Z,8.30
2018-07-20T00:59:44.583Z,8.00
2018-07-20T01:02:12.916Z,7.93
2018-07-20T01:04:41.241Z,7.33
2018-07-20T01:07:09.715Z,8.43
2018-07-20T01:09:38.023Z,6.70
2018-07-20T01:12:06.448Z,6.27
2018-07-20T01:14:34.798Z,6.17
2018-07-20T01:17:03.127Z,5.33
2018-07-20T01:19:31.511Z,6.03
2018-07-20T01:21:59.883Z,6.37
2018-07-20T01:24:28.206Z,6.70
2018-07-20T01:26:56.535Z,6.73
2018-07-20T01:29:24.879Z,5.13
2018-07-20T01:31:53.206Z,4.97
2018-07-20T01:34:21.474Z,6.50
2018-07-20T01:36:49.833Z,4.37
2018-07-20T01:39:18.135Z,5.67
2018-07-20T01:41:46.484Z,7.97
2018-07-20T01:44:14.846Z,5.10
2018-07-20T01:46:43.165Z,6.43
2018-07-20T01:49:11.494Z,5.57
2018-07-20T01:51:39.858Z,5.50
2018-07-20T01:54:08.196Z,6.57
2018-07-20T01:56:36.511Z,4.30
2018-07-20T01:59:04.884Z,5.17
2018-07-20T02:01:33.281Z,4.43
2018-07-20T02:04:01.607Z,4.90
2018-07-20T02:06:29.949Z,5.23
2018-07-20T02:08:58.247Z,4.80
2018-07-20T02:11:26.566Z,4.87
2018-07-20T02:13:54.726Z,5.83
2018-07-20T02:16:23.058Z,4.93
2018-07-20T02:18:51.456Z,5.10
2018-07-20T02:21:19.814Z,5.23
2018-07-20T02:23:48.133Z,5.13
2018-07-20T02:26:16.482Z,5.83
2018-07-20T02:28:44.812Z,5.87
2018-07-20T02:31:12.870Z,5.30
2018-07-20T02:33:41.063Z,4.77
2018-07-20T02:36:09.402Z,6.83
2018-07-20T02:38:37.775Z,3.97
2018-07-20T02:41:06.254Z,3.73
2018-07-20T02:43:34.855Z,3.97
2018-07-20T02:46:03.176Z,4.63
2018-07-20T02:48:31.508Z,5.73
2018-07-20T02:50:59.844Z,4.67
2018-07-20T02:53:28.228Z,3.93
2018-07-20T02:55:56.855Z,5.83
2018-07-20T02:58:24.944Z,5.03
2018-07-20T03:00:53.510Z,4.47
2018-07-20T03:03:25.175Z,8.13
2018-07-20T03:05:53.490Z,7.97
2018-07-20T03:08:21.816Z,3.27
2018-07-20T03:10:50.143Z,5.73
2018-07-20T03:13:18.479Z,4.83
2018-07-20T03:15:46.869Z,6.27
2018-07-20T03:18:15.171Z,3.17
2018-07-20T03:20:43.542Z,4.80
2018-07-20T03:23:11.874Z,4.00
2018-07-20T03:25:40.216Z,3.17
2018-07-20T03:28:08.566Z,3.07
2018-07-20T03:30:36.911Z,3.53
2018-07-20T03:33:05.295Z,6.00
2018-07-20T03:35:33.622Z,3.27
2018-07-20T03:38:01.795Z,5.33
2018-07-20T03:40:30.164Z,3.83
2018-07-20T03:42:58.463Z,3.63
2018-07-20T03:45:26.833Z,4.40
2018-07-20T03:47:55.175Z,6.87
2018-07-20T03:50:23.518Z,2.90
2018-07-20T03:52:51.846Z,2.83
2018-07-20T03:55:19.927Z,3.00
2018-07-20T03:57:48.300Z,2.90
2018-07-20T04:00:16.847Z,2.90
2018-07-20T04:02:45.228Z,3.23
2018-07-20T04:05:13.583Z,3.50
2018-07-20T04:07:41.890Z,2.70
2018-07-20T04:10:10.219Z,3.97
2018-07-20T04:12:38.550Z,2.70
2018-07-20T04:15:06.905Z,2.90
2018-07-20T04:17:42.512Z,2.33
2018-07-20T04:20:10.678Z,2.30
2018-07-20T04:22:39.025Z,2.50
2018-07-20T04:25:07.503Z,2.60
2018-07-20T04:27:36.107Z,3.50
2018-07-20T04:30:07.898Z,4.10
2018-07-20T04:32:36.331Z,3.73
2018-07-20T04:35:04.664Z,2.17
2018-07-20T04:37:32.978Z,2.90
2018-07-20T04:40:01.311Z,4.93
2018-07-20T04:42:29.667Z,2.50
2018-07-20T04:44:57.982Z,2.77
2018-07-20T04:47:26.594Z,2.63
2018-07-20T04:49:55.220Z,3.77
2018-07-20T04:52:23.511Z,3.77
2018-07-20T04:54:51.846Z,2.90
2018-07-20T04:57:20.156Z,2.77
2018-07-20T04:59:48.529Z,2.77
2018-07-20T05:02:16.866Z,2.80
2018-07-20T05:04:45.219Z,5.57
2018-07-20T05:07:13.583Z,2.90
2018-07-20T05:09:41.932Z,3.20
2018-07-20T05:12:11.149Z,2.43
2018-07-20T05:14:39.482Z,3.47
2018-07-20T05:17:07.826Z,3.73
2018-07-20T05:19:36.169Z,3.67
2018-07-20T05:22:04.528Z,3.33
2018-07-20T05:24:32.843Z,3.50
2018-07-20T05:27:01.164Z,2.87
2018-07-20T05:29:29.531Z,4.27
2018-07-20T05:31:57.921Z,2.87
2018-07-20T05:34:26.272Z,3.60
2018-07-20T05:36:54.698Z,3.17
2018-07-20T05:39:23.006Z,2.23
2018-07-20T05:41:51.363Z,2.80
2018-07-20T05:44:19.714Z,3.73
2018-07-20T05:46:48.343Z,2.83
2018-07-20T05:49:16.656Z,2.37
2018-07-20T05:51:45.628Z,2.93
2018-07-20T05:54:13.997Z,3.40
2018-07-20T05:56:42.058Z,2.63
2018-07-20T05:59:10.514Z,4.03
2018-07-20T06:01:38.866Z,3.50
2018-07-20T06:04:07.215Z,2.73
2018-07-20T06:06:35.524Z,3.53
2018-07-20T06:09:06.192Z,2.77
2018-07-20T06:11:34.295Z,32.13
2018-07-20T06:14:02.636Z,27.80
2018-07-20T06:16:31.010Z,18.67
2018-07-20T06:18:59.464Z,22.13
2018-07-20T06:21:27.914Z,21.23
2018-07-20T06:23:56.271Z,19.67
2018-07-20T06:26:24.750Z,29.87
2018-07-20T06:28:53.100Z,27.93
2018-07-20T06:31:21.491Z,27.00
2018-07-20T06:33:49.831Z,28.80
2018-07-20T06:36:18.192Z,31.37
2018-07-20T06:38:46.591Z,23.53
2018-07-20T06:41:15.016Z,24.47
2018-07-20T06:43:43.379Z,23.17
2018-07-20T06:46:11.761Z,27.60
2018-07-20T06:48:40.112Z,35.93
2018-07-20T06:51:09.027Z,49.87
2018-07-20T06:53:37.133Z,39.77
2018-07-20T06:56:05.539Z,44.97
2018-07-20T06:58:33.973Z,45.47
2018-07-20T07:01:02.331Z,34.40
2018-07-20T07:03:30.654Z,29.57
2018-07-20T07:05:58.794Z,35.33
2018-07-20T07:08:27.118Z,34.47
2018-07-20T07:10:55.493Z,36.30
2018-07-20T07:13:23.859Z,48.70
2018-07-20T07:15:52.532Z,58.10
2018-07-20T07:18:20.874Z,48.90
2018-07-20T07:20:49.495Z,52.90
2018-07-20T07:23:17.868Z,59.33
2018-07-20T07:25:46.208Z,58.77
2018-07-20T07:28:14.545Z,56.33
2018-07-20T07:30:42.875Z,52.00
2018-07-20T07:33:11.599Z,50.57
2018-07-20T07:35:40.325Z,62.60
2018-07-20T07:38:08.708Z,63.70
2018-07-20T07:40:37.048Z,61.23
2018-07-20T07:43:05.378Z,52.47
2018-07-20T07:45:34.082Z,51.80
2018-07-20T07:48:02.391Z,49.33
2018-07-20T07:50:30.729Z,49.70
2018-07-20T07:52:59.075Z,42.67
2018-07-20T07:55:27.395Z,33.10
2018-07-20T07:57:55.702Z,33.57
2018-07-20T08:00:24.053Z,33.90
2018-07-20T08:02:52.366Z,39.27
2018-07-20T08:05:20.670Z,40.27
2018-07-20T08:07:49.002Z,46.57
2018-07-20T08:10:17.376Z,65.47
2018-07-20T08:12:45.664Z,51.10
2018-07-20T08:15:15.186Z,40.73
2018-07-20T08:17:44.539Z,43.90
2018-07-20T08:20:12.936Z,34.40
2018-07-20T08:22:41.614Z,34.83
2018-07-20T08:25:09.946Z,28.90
2018-07-20T08:27:38.238Z,28.57
2018-07-20T08:30:06.591Z,27.30
2018-07-20T08:32:34.898Z,26.40
2018-07-20T08:35:03.231Z,24.30
2018-07-20T08:37:31.553Z,24.07
2018-07-20T08:39:59.927Z,26.43
2018-07-20T08:42:28.206Z,22.97
2018-07-20T08:44:56.518Z,23.03
2018-07-20T08:47:24.815Z,22.43
2018-07-20T08:49:53.152Z,23.07
2018-07-20T08:52:21.444Z,22.93
2018-07-20T08:54:49.750Z,22.90
2018-07-20T08:57:18.075Z,20.90
2018-07-20T08:59:46.691Z,20.30
2018-07-20T09:02:15.010Z,19.77
2018-07-20T09:04:43.320Z,19.10
2018-07-20T09:07:11.654Z,19.93
2018-07-20T09:09:39.950Z,18.40
2018-07-20T09:12:08.705Z,18.70
2018-07-20T09:14:37.011Z,16.40
2018-07-20T09:17:05.312Z,18.20
2018-07-20T09:19:33.629Z,14.67
2018-07-20T09:22:02.002Z,16.13
2018-07-20T09:24:30.287Z,14.67
2018-07-20T09:26:58.619Z,14.10
2018-07-20T09:29:26.946Z,14.43
2018-07-20T09:31:56.975Z,13.70
2018-07-20T09:34:25.306Z,15.97
2018-07-20T09:36:53.658Z,14.83
2018-07-20T09:39:21.991Z,12.90
2018-07-20T09:41:50.066Z,13.40
2018-07-20T09:44:18.174Z,15.17
2018-07-20T09:46:46.466Z,13.80
2018-07-20T09:49:14.808Z,12.87
2018-07-20T09:51:43.892Z,11.90
2018-07-20T09:54:12.237Z,12.37
2018-07-20T09:56:40.528Z,11.93
2018-07-20T09:59:08.837Z,10.83
2018-07-20T10:01:37.155Z,12.13
2018-07-20T10:04:05.616Z,9.63
2018-07-20T10:06:33.920Z,10.67
2018-07-20T10:09:02.202Z,11.03
2018-07-20T10:11:30.544Z,9.67
2018-07-20T10:13:58.903Z,15.23
2018-07-20T10:16:27.226Z,15.63
2018-07-20T10:18:55.609Z,14.47
2018-07-20T10:21:23.908Z,17.17
2018-07-20T10:23:51.988Z,36.17
2018-07-20T10:26:20.348Z,26.90
2018-07-20T10:28:48.690Z,21.83
2018-07-20T10:31:17.535Z,24.23
2018-07-20T10:33:46.601Z,21.57
2018-07-20T10:36:14.930Z,21.83
2018-07-20T10:38:43.260Z,18.97
2018-07-20T10:41:11.593Z,27.80
2018-07-20T10:43:39.927Z,34.57
2018-07-20T10:46:08.043Z,37.43
2018-07-20T10:48:36.695Z,41.33
2018-07-20T10:51:05.026Z,55.33
2018-07-20T10:53:33.340Z,49.57
2018-07-20T10:56:01.729Z,52.43
2018-07-20T10:58:30.063Z,50.40
2018-07-20T11:00:58.377Z,44.67
2018-07-20T11:03:26.715Z,40.83
2018-07-20T11:05:55.039Z,41.47
2018-07-20T11:08:23.386Z,36.67
2018-07-20T11:10:51.738Z,44.77
2018-07-20T11:13:20.026Z,53.30
2018-07-20T11:15:48.344Z,50.37
2018-07-20T11:18:16.651Z,51.17
2018-07-20T11:20:45.040Z,45.57
2018-07-20T11:23:13.367Z,50.60
2018-07-20T11:25:41.686Z,43.00
2018-07-20T11:28:09.991Z,36.57
2018-07-20T11:30:38.063Z,34.70
2018-07-20T11:33:06.363Z,34.60
2018-07-20T11:35:34.675Z,34.53
2018-07-20T11:38:03.194Z,32.80
2018-07-20T11:40:31.511Z,32.90
2018-07-20T11:42:59.813Z,38.30
2018-07-20T11:45:28.140Z,38.43
2018-07-20T11:47:56.610Z,39.27
2018-07-20T11:50:24.927Z,37.73
2018-07-20T11:52:53.258Z,33.83
2018-07-20T11:55:21.626Z,34.77
2018-07-20T11:57:49.830Z,36.37
2018-07-20T12:00:18.156Z,29.97
2018-07-20T12:02:46.470Z,42.57
2018-07-20T12:05:14.756Z,31.10
2018-07-20T12:07:42.878Z,35.67
2018-07-20T12:10:11.189Z,38.87
2018-07-20T12:12:39.494Z,45.63
2018-07-20T12:15:07.803Z,39.50
2018-07-20T12:17:36.265Z,43.23
2018-07-20T12:20:04.594Z,35.27
2018-07-20T12:22:32.953Z,35.17
2018-07-20T12:25:01.320Z,31.23
2018-07-20T12:27:29.738Z,27.47
2018-07-20T12:29:57.855Z,29.87
2018-07-20T12:32:26.126Z,26.13
2018-07-20T12:34:54.438Z,27.47
2018-07-20T12:37:22.735Z,25.97
2018-07-20T12:39:51.047Z,25.07
2018-07-20T12:42:19.376Z,25.23
2018-07-20T12:44:47.975Z,20.70
2018-07-20T12:47:16.786Z,19.73
2018-07-20T12:49:45.093Z,19.40
2018-07-20T12:52:13.388Z,17.67
2018-07-20T12:54:41.725Z,19.03
2018-07-20T12:57:10.139Z,20.33
2018-07-20T12:59:38.500Z,17.17
2018-07-20T13:02:06.979Z,15.70
2018-07-20T13:04:35.307Z,15.27
2018-07-20T13:07:03.622Z,18.23
2018-07-20T13:09:31.954Z,21.70
2018-07-20T13:12:00.329Z,20.03
2018-07-20T13:14:28.345Z,26.73
2018-07-20T13:16:56.665Z,24.80
2018-07-20T13:19:25.044Z,30.53
2018-07-20T13:21:53.354Z,24.40
2018-07-20T13:24:21.655Z,22.10
2018-07-20T13:26:49.982Z,21.53
2018-07-20T13:29:18.285Z,20.40
2018-07-20T13:31:46.614Z,19.73
2018-07-20T13:34:14.922Z,21.03
2018-07-20T13:36:43.238Z,19.10
2018-07-20T13:39:11.979Z,17.03
2018-07-20T13:41:40.988Z,29.73
2018-07-20T13:44:09.356Z,51.07
2018-07-20T13:46:37.965Z,43.40
2018-07-20T13:49:06.463Z,32.60
2018-07-20T13:51:34.513Z,30.83
2018-07-20T13:54:02.823Z,30.57
2018-07-20T13:56:31.131Z,26.53
2018-07-20T13:58:59.495Z,27.27
2018-07-20T14:01:27.831Z,26.67
2018-07-20T14:03:56.136Z,25.63
2018-07-20T14:06:24.455Z,23.23
2018-07-20T14:08:52.835Z,21.87
2018-07-20T14:11:21.175Z,21.90
2018-07-20T14:13:49.639Z,20.30
2018-07-20T14:16:17.978Z,28.70
2018-07-20T14:18:46.279Z,32.07
2018-07-20T14:21:14.591Z,26.50
2018-07-20T14:23:42.941Z,24.37
2018-07-20T14:26:11.231Z,23.60
2018-07-20T14:28:39.531Z,22.53
2018-07-20T14:31:08.033Z,17.20
2018-07-20T14:33:36.362Z,15.97
2018-07-20T14:36:04.675Z,22.43
2018-07-20T14:38:33.020Z,20.47
2018-07-20T14:41:01.313Z,18.03
2018-07-20T14:43:29.607Z,19.50
2018-07-20T14:45:58.030Z,20.13
2018-07-20T14:48:26.351Z,23.40
2018-07-20T14:50:54.734Z,21.60
2018-07-20T14:53:23.068Z,20.00
2018-07-20T14:55:51.537Z,28.10
2018-07-20T14:58:19.874Z,26.03
2018-07-20T15:00:48.230Z,24.90
2018-07-20T15:03:16.533Z,27.03
2018-07-20T15:05:44.830Z,25.93
2018-07-20T15:08:13.159Z,26.83
2018-07-20T15:10:41.456Z,26.77
2018-07-20T15:13:09.781Z,25.23
2018-07-20T15:15:38.157Z,22.83
2018-07-20T15:18:06.504Z,23.97
2018-07-20T15:20:34.860Z,25.03
2018-07-20T15:23:03.202Z,21.83
2018-07-20T15:25:31.279Z,23.60
2018-07-20T15:27:59.315Z,23.80
2018-07-20T15:30:27.662Z,24.47
2018-07-20T15:32:56.043Z,28.20
2018-07-20T15:35:24.355Z,21.20
2018-07-20T15:37:52.708Z,22.37
2018-07-20T15:40:21.039Z,29.27
2018-07-20T15:42:49.339Z,35.80
2018-07-20T15:45:17.792Z,22.53
2018-07-20T15:47:45.829Z,30.50
2018-07-20T15:50:14.145Z,28.13
2018-07-20T15:53:35.718Z,21.40
2018-07-20T15:55:10.570Z,24.60
2018-07-20T15:57:39.049Z,24.00
2018-07-20T16:00:07.662Z,168.90
2018-07-20T16:02:36.099Z,28.97
2018-07-20T16:05:04.571Z,24.17
2018-07-20T16:07:32.887Z,36.30
2018-07-20T16:10:01.208Z,41.80
2018-07-20T16:12:29.530Z,42.77
2018-07-20T16:14:57.920Z,42.40
2018-07-20T16:17:26.597Z,46.43
2018-07-20T16:19:54.909Z,54.07
2018-07-20T16:22:23.426Z,65.10
2018-07-20T16:24:51.749Z,72.07
2018-07-20T16:27:20.092Z,77.80
2018-07-20T16:29:48.395Z,108.03
2018-07-20T16:32:16.723Z,256.27
2018-07-20T16:34:45.206Z,156.07
2018-07-20T16:37:13.614Z,129.93
2018-07-20T16:39:41.914Z,123.63
2018-07-20T16:42:10.624Z,109.03
2018-07-20T16:44:38.934Z,111.83
2018-07-20T16:47:07.364Z,93.83
2018-07-20T16:49:35.665Z,69.10
2018-07-20T16:52:04.027Z,69.00
2018-07-20T16:54:32.334Z,69.43
2018-07-20T16:57:00.655Z,50.80
2018-07-20T16:59:28.983Z,49.87
2018-07-20T17:01:57.283Z,38.67
2018-07-20T17:04:25.618Z,31.33
2018-07-20T17:06:53.919Z,21.20
2018-07-20T17:09:22.228Z,20.87
2018-07-20T17:11:50.545Z,14.03
2018-07-20T17:14:18.872Z,12.70
2018-07-20T17:16:47.248Z,10.93
2018-07-20T17:19:15.548Z,11.40
2018-07-20T17:21:43.935Z,11.57
2018-07-20T17:24:12.237Z,12.60
2018-07-20T17:26:40.540Z,10.00
2018-07-20T17:29:08.871Z,15.60
2018-07-20T17:31:37.176Z,16.03
2018-07-20T17:34:05.595Z,21.10
2018-07-20T17:36:33.957Z,11.53
2018-07-20T17:39:02.245Z,11.77
2018-07-20T17:41:30.543Z,13.03
2018-07-20T17:43:58.902Z,13.87
2018-07-20T17:46:27.203Z,12.13
2018-07-20T17:48:55.540Z,11.70
2018-07-20T17:51:23.831Z,12.53
2018-07-20T17:53:52.142Z,12.67
2018-07-20T17:56:20.483Z,10.00
2018-07-20T17:58:48.798Z,11.43
2018-07-20T18:01:17.243Z,11.93
2018-07-20T18:03:45.668Z,7.67
2018-07-20T18:06:13.956Z,8.17
2018-07-20T18:08:42.242Z,5.63
2018-07-20T18:11:10.579Z,6.73
2018-07-20T18:13:38.934Z,4.57
2018-07-20T18:16:07.259Z,8.30
2018-07-20T18:18:35.539Z,4.33
2018-07-20T18:21:03.842Z,5.37
2018-07-20T18:23:32.138Z,5.20
2018-07-20T18:26:00.532Z,3.67
2018-07-20T18:28:28.917Z,15.77
2018-07-20T18:30:57.256Z,11.80
2018-07-20T18:33:25.790Z,17.20
2018-07-20T18:35:54.205Z,16.50
2018-07-20T18:38:22.518Z,18.27
2018-07-20T18:40:50.837Z,14.43
2018-07-20T18:43:19.159Z,12.27
2018-07-20T18:45:47.634Z,13.67
2018-07-20T18:48:15.935Z,8.10
2018-07-20T18:50:44.238Z,25.57
2018-07-20T18:53:18.232Z,60.77
2018-07-20T18:55:46.612Z,132.97
2018-07-20T18:58:14.929Z,106.93
2018-07-20T19:00:43.485Z,45.17
2018-07-20T19:03:11.807Z,52.40
2018-07-20T19:05:39.880Z,35.37
2018-07-20T19:08:07.956Z,28.53
2018-07-20T19:10:36.255Z,19.20
2018-07-20T19:13:04.616Z,20.60
2018-07-20T19:15:32.916Z,21.10
2018-07-20T19:18:01.229Z,15.00
2018-07-20T19:20:32.371Z,23.20
2018-07-20T19:23:00.706Z,21.50
2018-07-20T19:25:34.533Z,23.03
2018-07-20T19:28:02.938Z,19.63
2018-07-20T19:30:31.271Z,18.53
2018-07-20T19:32:59.599Z,18.67
2018-07-20T19:35:27.906Z,16.17
2018-07-20T19:37:56.298Z,11.67
2018-07-20T19:40:24.673Z,8.00
2018-07-20T19:42:55.169Z,20.30
2018-07-20T19:45:23.920Z,29.93
2018-07-20T19:47:52.291Z,54.67
2018-07-20T19:50:20.624Z,27.57
2018-07-20T19:52:49.035Z,24.53
2018-07-20T19:55:17.384Z,21.43
2018-07-20T19:57:45.455Z,19.00
2018-07-20T20:00:13.835Z,18.27
2018-07-20T20:02:42.274Z,16.80
2018-07-20T20:05:10.618Z,20.40
2018-07-20T20:07:38.965Z,19.07
2018-07-20T20:10:07.197Z,28.23
2018-07-20T20:12:35.661Z,30.20
2018-07-20T20:15:04.473Z,122.63
2018-07-20T20:17:34.035Z,57.40
2018-07-20T20:20:02.347Z,34.27
2018-07-20T20:22:30.649Z,31.60
2018-07-20T20:24:59.030Z,31.63
2018-07-20T20:27:27.357Z,30.13
2018-07-20T20:29:55.657Z,28.30
2018-07-20T20:32:24.024Z,27.97
2018-07-20T20:34:52.371Z,29.87
2018-07-20T20:37:20.692Z,28.50
2018-07-20T20:39:49.005Z,28.07
2018-07-20T20:42:17.371Z,24.77
2018-07-20T20:44:45.701Z,26.10
2018-07-20T20:47:13.983Z,26.07
2018-07-20T20:49:42.410Z,9.83
2018-07-20T20:52:10.764Z,7.67
2018-07-20T20:54:39.135Z,11.30
2018-07-20T20:57:07.528Z,10.53
2018-07-20T20:59:35.898Z,8.63
2018-07-20T21:02:04.250Z,4.70
2018-07-20T21:04:32.702Z,4.47
2018-07-20T21:07:01.016Z,4.80
2018-07-20T21:09:29.517Z,6.23
2018-07-20T21:11:57.968Z,9.97
2018-07-20T21:14:26.310Z,14.97
2018-07-20T21:16:54.871Z,11.90
2018-07-20T21:19:23.342Z,9.40
2018-07-20T21:21:51.737Z,8.17
2018-07-20T21:24:20.200Z,7.20
2018-07-20T21:26:48.747Z,8.80
2018-07-20T21:29:17.194Z,5.47
2018-07-20T21:31:46.047Z,3.10
2018-07-20T21:34:14.613Z,4.73
2018-07-20T21:36:43.108Z,3.43
2018-07-20T21:39:12.955Z,3.70
2018-07-20T21:41:42.346Z,3.17
2018-07-20T21:44:10.635Z,5.93
2018-07-20T21:46:39.435Z,4.00
2018-07-20T21:49:07.875Z,6.63
2018-07-20T21:51:36.594Z,5.20
2018-07-20T21:54:05.099Z,4.83
2018-07-20T21:56:33.452Z,4.20
2018-07-20T21:59:01.900Z,2.33
2018-07-20T22:01:30.424Z,13.10
2018-07-20T22:03:58.826Z,5.33
2018-07-20T22:06:27.204Z,5.53
2018-07-20T22:08:55.795Z,11.27
2018-07-20T22:11:24.199Z,3.63
2018-07-20T22:13:52.767Z,11.53
2018-07-20T22:16:21.214Z,15.43
2018-07-20T22:18:49.638Z,12.10
2018-07-20T22:21:18.166Z,13.20
2018-07-20T22:23:46.998Z,12.93
2018-07-20T22:26:15.459Z,11.47
2018-07-20T22:28:44.206Z,9.93
2018-07-20T22:31:12.564Z,5.47
2018-07-20T22:33:41.084Z,8.67
2018-07-20T22:36:09.452Z,41.60
2018-07-20T22:38:37.876Z,22.07
2018-07-20T22:41:06.251Z,14.83
2018-07-20T22:43:34.715Z,13.30
2018-07-20T22:46:02.990Z,9.33
2018-07-20T22:48:31.362Z,7.43
2018-07-20T22:50:59.719Z,6.40
2018-07-20T22:53:28.031Z,8.30
2018-07-20T22:55:56.178Z,5.17
2018-07-20T22:58:24.490Z,4.20
2018-07-20T23:00:53.029Z,3.57
2018-07-20T23:03:21.311Z,3.37
2018-07-20T23:05:49.739Z,5.10
2018-07-20T23:08:18.087Z,3.23
2018-07-20T23:10:46.609Z,7.77
2018-07-20T23:13:14.924Z,4.10
2018-07-20T23:15:43.256Z,4.77
2018-07-20T23:18:12.348Z,2.63
2018-07-20T23:20:40.492Z,3.60
2018-07-20T23:23:08.758Z,5.23
2018-07-20T23:25:37.067Z,3.70
2018-07-20T23:28:05.702Z,5.43
2018-07-20T23:30:34.045Z,9.03
2018-07-20T23:33:02.643Z,5.17
2018-07-20T23:35:31.017Z,12.27
2018-07-20T23:37:59.361Z,12.63
2018-07-20T23:40:27.733Z,7.67
2018-07-20T23:42:56.114Z,11.93
2018-07-20T23:45:24.465Z,7.20
2018-07-20T23:47:52.801Z,4.20
2018-07-20T23:50:21.197Z,5.73
2018-07-20T23:52:49.824Z,11.30
2018-07-20T23:55:18.611Z,4.13
2018-07-20T23:57:46.974Z,4.73
